sensor_id;sensor_type;location;lat;lon;timestamp;P1;durP1;ratioP1;P2;durP2;ratioP2
15936;SDS011;9163;48.818;8.976;2023-12-07T00:02:19;13.13;;;8.70;;
15936;SDS011;9163;48.818;8.976;2023-12-07T00:04:47;14.80;;;9.17;;
15936;SDS011;9163;48.818;8.976;2023-12-07T00:07:14;13.17;;;8.90;;
15936;SDS011;9163;48.818;8.976;2023-12-07T00:09:42;13.57;;;9.60;;
15936;SDS011;9163;48.818;8.976;2023-12-07T00:12:09;15.50;;;9.60;;
15936;SDS011;9163;48.818;8.976;2023-12-07T00:14:39;15.20;;;10.10;;
15936;SDS011;9163;48.818;8.976;2023-12-07T00:17:07;15.40;;;10.10;;
15936;SDS011;9163;48.818;8.976;2023-12-07T00:19:34;15.97;;;9.73;;
15936;SDS011;9163;48.818;8.976;2023-12-07T00:22:01;13.67;;;9.57;;
15936;SDS011;9163;48.818;8.976;2023-12-07T00:24:29;14.70;;;9.37;;
15936;SDS011;9163;48.818;8.976;2023-12-07T00:26:57;15.40;;;8.80;;
15936;SDS011;9163;48.818;8.976;2023-12-07T00:29:24;13.07;;;8.93;;
15936;SDS011;9163;48.818;8.976;2023-12-07T00:31:51;14.87;;;8.50;;
15936;SDS011;9163;48.818;8.976;2023-12-07T00:34:19;11.33;;;8.40;;
15936;SDS011;9163;48.818;8.976;2023-12-07T00:36:46;12.47;;;8.30;;
15936;SDS011;9163;48.818;8.976;2023-12-07T00:39:13;13.50;;;8.20;;
15936;SDS011;9163;48.818;8.976;2023-12-07T00:41:41;13.80;;;9.13;;
15936;SDS011;9163;48.818;8.976;2023-12-07T00:44:10;14.43;;;8.33;;
15936;SDS011;9163;48.818;8.976;2023-12-07T00:46:37;12.97;;;9.13;;
15936;SDS011;9163;48.818;8.976;2023-12-07T00:49:04;13.83;;;9.87;;
15936;SDS011;9163;48.818;8.976;2023-12-07T00:51:31;12.63;;;9.10;;
15936;SDS011;9163;48.818;8.976;2023-12-07T00:53:58;14.57;;;9.70;;
15936;SDS011;9163;48.818;8.976;2023-12-07T00:56:26;16.27;;;9.80;;
15936;SDS011;9163;48.818;8.976;2023-12-07T00:58:53;15.67;;;9.77;;
15936;SDS011;9163;48.818;8.976;2023-12-07T01:01:22;14.47;;;9.70;;
15936;SDS011;9163;48.818;8.976;2023-12-07T01:03:49;15.67;;;9.83;;
15936;SDS011;9163;48.818;8.976;2023-12-07T01:06:16;13.93;;;9.97;;
15936;SDS011;9163;48.818;8.976;2023-12-07T01:08:43;16.73;;;10.63;;
15936;SDS011;9163;48.818;8.976;2023-12-07T01:11:10;14.27;;;10.00;;
15936;SDS011;9163;48.818;8.976;2023-12-07T01:13:37;14.43;;;10.23;;
15936;SDS011;9163;48.818;8.976;2023-12-07T01:16:05;15.23;;;10.17;;
15936;SDS011;9163;48.818;8.976;2023-12-07T01:18:33;13.50;;;9.47;;
15936;SDS011;9163;48.818;8.976;2023-12-07T01:21:01;13.57;;;10.37;;
15936;SDS011;9163;48.818;8.976;2023-12-07T01:23:28;15.00;;;9.77;;
15936;SDS011;9163;48.818;8.976;2023-12-07T01:25:55;14.00;;;9.50;;
15936;SDS011;9163;48.818;8.976;2023-12-07T01:28:23;14.70;;;9.80;;
15936;SDS011;9163;48.818;8.976;2023-12-07T01:30:50;14.23;;;9.70;;
15936;SDS011;9163;48.818;8.976;2023-12-07T01:33:17;13.73;;;8.93;;
15936;SDS011;9163;48.818;8.976;2023-12-07T01:35:45;14.77;;;9.73;;
15936;SDS011;9163;48.818;8.976;2023-12-07T01:38:13;14.40;;;9.30;;
15936;SDS011;9163;48.818;8.976;2023-12-07T01:40:40;13.13;;;9.23;;
15936;SDS011;9163;48.818;8.976;2023-12-07T01:43:07;14.57;;;9.40;;
15936;SDS011;9163;48.818;8.976;2023-12-07T01:45:34;13.80;;;9.30;;
15936;SDS011;9163;48.818;8.976;2023-12-07T01:48:01;14.80;;;9.67;;
15936;SDS011;9163;48.818;8.976;2023-12-07T01:50:29;16.80;;;10.80;;
15936;SDS011;9163;48.818;8.976;2023-12-07T01:52:59;16.03;;;10.70;;
15936;SDS011;9163;48.818;8.976;2023-12-07T01:55:28;17.83;;;10.60;;
15936;SDS011;9163;48.818;8.976;2023-12-07T01:57:58;14.40;;;10.23;;
15936;SDS011;9163;48.818;8.976;2023-12-07T02:00:25;15.07;;;10.47;;
15936;SDS011;9163;48.818;8.976;2023-12-07T02:02:53;16.27;;;10.80;;
15936;SDS011;9163;48.818;8.976;2023-12-07T02:05:21;16.57;;;10.57;;
15936;SDS011;9163;48.818;8.976;2023-12-07T02:07:49;17.70;;;11.50;;
15936;SDS011;9163;48.818;8.976;2023-12-07T02:10:18;18.80;;;10.93;;
15936;SDS011;9163;48.818;8.976;2023-12-07T02:12:46;17.27;;;10.77;;
15936;SDS011;9163;48.818;8.976;2023-12-07T02:15:14;16.63;;;11.47;;
15936;SDS011;9163;48.818;8.976;2023-12-07T02:17:43;14.93;;;10.47;;
15936;SDS011;9163;48.818;8.976;2023-12-07T02:20:17;15.97;;;10.57;;
15936;SDS011;9163;48.818;8.976;2023-12-07T02:22:52;17.00;;;11.20;;
15936;SDS011;9163;48.818;8.976;2023-12-07T02:25:23;16.07;;;10.20;;
15936;SDS011;9163;48.818;8.976;2023-12-07T02:27:54;15.13;;;10.70;;
15936;SDS011;9163;48.818;8.976;2023-12-07T02:30:21;18.90;;;11.23;;
15936;SDS011;9163;48.818;8.976;2023-12-07T02:32:48;15.23;;;10.93;;
15936;SDS011;9163;48.818;8.976;2023-12-07T02:35:15;21.17;;;14.10;;
15936;SDS011;9163;48.818;8.976;2023-12-07T02:37:43;16.17;;;11.60;;
15936;SDS011;9163;48.818;8.976;2023-12-07T02:40:12;17.27;;;11.73;;
15936;SDS011;9163;48.818;8.976;2023-12-07T02:42:44;16.77;;;11.23;;
15936;SDS011;9163;48.818;8.976;2023-12-07T02:45:13;16.90;;;10.27;;
15936;SDS011;9163;48.818;8.976;2023-12-07T02:47:41;16.30;;;10.87;;
15936;SDS011;9163;48.818;8.976;2023-12-07T02:50:10;15.77;;;10.07;;
15936;SDS011;9163;48.818;8.976;2023-12-07T02:52:38;16.07;;;10.27;;
15936;SDS011;9163;48.818;8.976;2023-12-07T02:55:06;19.03;;;11.03;;
15936;SDS011;9163;48.818;8.976;2023-12-07T02:57:34;16.57;;;10.80;;
15936;SDS011;9163;48.818;8.976;2023-12-07T03:00:02;15.13;;;10.53;;
15936;SDS011;9163;48.818;8.976;2023-12-07T03:02:33;18.57;;;11.27;;
15936;SDS011;9163;48.818;8.976;2023-12-07T03:05:01;16.63;;;11.00;;
15936;SDS011;9163;48.818;8.976;2023-12-07T03:07:29;16.97;;;10.83;;
15936;SDS011;9163;48.818;8.976;2023-12-07T03:09:56;17.13;;;10.50;;
15936;SDS011;9163;48.818;8.976;2023-12-07T03:12:22;16.43;;;11.03;;
15936;SDS011;9163;48.818;8.976;2023-12-07T03:14:49;15.43;;;9.90;;
15936;SDS011;9163;48.818;8.976;2023-12-07T03:17:17;16.47;;;9.70;;
15936;SDS011;9163;48.818;8.976;2023-12-07T03:19:45;14.67;;;10.27;;
15936;SDS011;9163;48.818;8.976;2023-12-07T03:22:12;17.07;;;10.50;;
15936;SDS011;9163;48.818;8.976;2023-12-07T03:24:40;15.73;;;10.67;;
15936;SDS011;9163;48.818;8.976;2023-12-07T03:27:12;17.70;;;10.90;;
15936;SDS011;9163;48.818;8.976;2023-12-07T03:29:39;16.73;;;10.80;;
15936;SDS011;9163;48.818;8.976;2023-12-07T03:32:06;17.00;;;11.00;;
15936;SDS011;9163;48.818;8.976;2023-12-07T03:34:34;17.07;;;10.27;;
15936;SDS011;9163;48.818;8.976;2023-12-07T03:37:02;16.93;;;10.77;;
15936;SDS011;9163;48.818;8.976;2023-12-07T03:39:30;17.80;;;11.47;;
15936;SDS011;9163;48.818;8.976;2023-12-07T03:41:58;17.10;;;11.17;;
15936;SDS011;9163;48.818;8.976;2023-12-07T03:44:25;16.90;;;11.40;;
15936;SDS011;9163;48.818;8.976;2023-12-07T03:46:53;19.03;;;11.27;;
15936;SDS011;9163;48.818;8.976;2023-12-07T03:49:20;15.90;;;11.20;;
15936;SDS011;9163;48.818;8.976;2023-12-07T03:51:47;15.97;;;10.37;;
15936;SDS011;9163;48.818;8.976;2023-12-07T03:54:16;15.90;;;10.00;;
15936;SDS011;9163;48.818;8.976;2023-12-07T03:56:43;14.83;;;10.30;;
15936;SDS011;9163;48.818;8.976;2023-12-07T03:59:10;19.23;;;10.53;;
15936;SDS011;9163;48.818;8.976;2023-12-07T04:01:37;17.00;;;10.80;;
15936;SDS011;9163;48.818;8.976;2023-12-07T04:04:05;17.53;;;10.37;;
15936;SDS011;9163;48.818;8.976;2023-12-07T04:06:32;16.53;;;11.20;;
15936;SDS011;9163;48.818;8.976;2023-12-07T04:08:59;15.83;;;11.40;;
15936;SDS011;9163;48.818;8.976;2023-12-07T04:11:28;16.77;;;11.20;;
15936;SDS011;9163;48.818;8.976;2023-12-07T04:13:55;17.27;;;10.80;;
15936;SDS011;9163;48.818;8.976;2023-12-07T04:16:22;16.90;;;10.87;;
15936;SDS011;9163;48.818;8.976;2023-12-07T04:18:49;17.60;;;11.00;;
15936;SDS011;9163;48.818;8.976;2023-12-07T04:21:16;18.00;;;11.20;;
15936;SDS011;9163;48.818;8.976;2023-12-07T04:23:44;16.70;;;10.63;;
15936;SDS011;9163;48.818;8.976;2023-12-07T04:26:11;17.03;;;10.50;;
15936;SDS011;9163;48.818;8.976;2023-12-07T04:28:39;18.83;;;11.17;;
15936;SDS011;9163;48.818;8.976;2023-12-07T04:31:07;17.40;;;11.23;;
15936;SDS011;9163;48.818;8.976;2023-12-07T04:33:34;18.10;;;11.47;;
15936;SDS011;9163;48.818;8.976;2023-12-07T04:36:01;18.13;;;11.30;;
15936;SDS011;9163;48.818;8.976;2023-12-07T04:38:30;17.70;;;11.20;;
15936;SDS011;9163;48.818;8.976;2023-12-07T04:40:57;15.57;;;10.73;;
15936;SDS011;9163;48.818;8.976;2023-12-07T04:43:25;17.60;;;11.17;;
15936;SDS011;9163;48.818;8.976;2023-12-07T04:45:53;17.07;;;11.33;;
15936;SDS011;9163;48.818;8.976;2023-12-07T04:48:20;21.90;;;12.83;;
15936;SDS011;9163;48.818;8.976;2023-12-07T04:50:48;18.73;;;11.43;;
15936;SDS011;9163;48.818;8.976;2023-12-07T04:53:15;18.07;;;11.27;;
15936;SDS011;9163;48.818;8.976;2023-12-07T04:55:42;19.37;;;11.50;;
15936;SDS011;9163;48.818;8.976;2023-12-07T04:58:12;17.17;;;10.80;;
15936;SDS011;9163;48.818;8.976;2023-12-07T05:00:41;19.63;;;10.50;;
15936;SDS011;9163;48.818;8.976;2023-12-07T05:03:09;21.77;;;12.30;;
15936;SDS011;9163;48.818;8.976;2023-12-07T05:05:37;18.73;;;11.00;;
15936;SDS011;9163;48.818;8.976;2023-12-07T05:08:04;18.33;;;10.67;;
15936;SDS011;9163;48.818;8.976;2023-12-07T05:10:31;18.90;;;11.07;;
15936;SDS011;9163;48.818;8.976;2023-12-07T05:12:58;18.97;;;10.77;;
15936;SDS011;9163;48.818;8.976;2023-12-07T05:15:26;17.13;;;10.63;;
15936;SDS011;9163;48.818;8.976;2023-12-07T05:17:53;17.43;;;10.87;;
15936;SDS011;9163;48.818;8.976;2023-12-07T05:20:21;19.17;;;11.53;;
15936;SDS011;9163;48.818;8.976;2023-12-07T05:22:49;17.90;;;11.00;;
15936;SDS011;9163;48.818;8.976;2023-12-07T05:25:17;19.43;;;11.67;;
15936;SDS011;9163;48.818;8.976;2023-12-07T05:27:44;17.43;;;11.30;;
15936;SDS011;9163;48.818;8.976;2023-12-07T05:30:11;17.57;;;11.63;;
15936;SDS011;9163;48.818;8.976;2023-12-07T05:32:39;18.40;;;11.77;;
15936;SDS011;9163;48.818;8.976;2023-12-07T05:35:06;20.70;;;11.37;;
15936;SDS011;9163;48.818;8.976;2023-12-07T05:37:35;18.77;;;11.33;;
15936;SDS011;9163;48.818;8.976;2023-12-07T05:40:02;17.40;;;11.20;;
15936;SDS011;9163;48.818;8.976;2023-12-07T05:42:31;17.10;;;11.30;;
15936;SDS011;9163;48.818;8.976;2023-12-07T05:44:58;18.80;;;11.30;;
15936;SDS011;9163;48.818;8.976;2023-12-07T05:47:26;17.73;;;11.17;;
15936;SDS011;9163;48.818;8.976;2023-12-07T05:49:53;16.83;;;11.07;;
15936;SDS011;9163;48.818;8.976;2023-12-07T05:52:23;19.87;;;11.53;;
15936;SDS011;9163;48.818;8.976;2023-12-07T05:54:51;21.20;;;11.87;;
15936;SDS011;9163;48.818;8.976;2023-12-07T05:57:18;19.03;;;11.83;;
15936;SDS011;9163;48.818;8.976;2023-12-07T05:59:45;19.03;;;11.60;;
15936;SDS011;9163;48.818;8.976;2023-12-07T06:02:13;19.27;;;11.43;;
15936;SDS011;9163;48.818;8.976;2023-12-07T06:04:40;16.93;;;11.30;;
15936;SDS011;9163;48.818;8.976;2023-12-07T06:07:07;20.10;;;11.83;;
15936;SDS011;9163;48.818;8.976;2023-12-07T06:09:34;19.43;;;11.90;;
15936;SDS011;9163;48.818;8.976;2023-12-07T06:12:03;20.27;;;12.87;;
15936;SDS011;9163;48.818;8.976;2023-12-07T06:14:31;19.43;;;11.83;;
15936;SDS011;9163;48.818;8.976;2023-12-07T06:16:58;21.10;;;12.47;;
15936;SDS011;9163;48.818;8.976;2023-12-07T06:19:26;18.93;;;12.43;;
15936;SDS011;9163;48.818;8.976;2023-12-07T06:21:53;19.13;;;11.93;;
15936;SDS011;9163;48.818;8.976;2023-12-07T06:24:20;18.77;;;11.97;;
15936;SDS011;9163;48.818;8.976;2023-12-07T06:26:50;18.43;;;11.47;;
15936;SDS011;9163;48.818;8.976;2023-12-07T06:29:18;18.73;;;12.37;;
15936;SDS011;9163;48.818;8.976;2023-12-07T06:31:46;19.20;;;12.10;;
15936;SDS011;9163;48.818;8.976;2023-12-07T06:34:13;21.00;;;12.90;;
15936;SDS011;9163;48.818;8.976;2023-12-07T06:36:40;21.87;;;13.33;;
15936;SDS011;9163;48.818;8.976;2023-12-07T06:39:07;23.63;;;13.50;;
15936;SDS011;9163;48.818;8.976;2023-12-07T06:41:34;24.10;;;13.00;;
15936;SDS011;9163;48.818;8.976;2023-12-07T06:44:01;20.20;;;12.67;;
15936;SDS011;9163;48.818;8.976;2023-12-07T06:46:30;23.13;;;13.90;;
15936;SDS011;9163;48.818;8.976;2023-12-07T06:48:57;22.90;;;13.00;;
15936;SDS011;9163;48.818;8.976;2023-12-07T06:51:25;31.00;;;20.20;;
15936;SDS011;9163;48.818;8.976;2023-12-07T06:53:52;24.93;;;15.43;;
15936;SDS011;9163;48.818;8.976;2023-12-07T06:56:19;29.33;;;15.27;;
15936;SDS011;9163;48.818;8.976;2023-12-07T06:58:47;29.00;;;16.43;;
15936;SDS011;9163;48.818;8.976;2023-12-07T07:01:14;35.83;;;24.73;;
15936;SDS011;9163;48.818;8.976;2023-12-07T07:03:42;25.57;;;17.23;;
15936;SDS011;9163;48.818;8.976;2023-12-07T07:06:10;26.30;;;15.97;;
15936;SDS011;9163;48.818;8.976;2023-12-07T07:08:37;26.13;;;15.80;;
15936;SDS011;9163;48.818;8.976;2023-12-07T07:11:09;26.00;;;15.47;;
15936;SDS011;9163;48.818;8.976;2023-12-07T07:13:38;23.53;;;14.63;;
15936;SDS011;9163;48.818;8.976;2023-12-07T07:16:06;24.97;;;15.20;;
15936;SDS011;9163;48.818;8.976;2023-12-07T07:18:34;26.70;;;15.60;;
15936;SDS011;9163;48.818;8.976;2023-12-07T07:21:05;24.47;;;14.67;;
15936;SDS011;9163;48.818;8.976;2023-12-07T07:23:33;23.37;;;13.97;;
15936;SDS011;9163;48.818;8.976;2023-12-07T07:26:01;22.03;;;13.33;;
15936;SDS011;9163;48.818;8.976;2023-12-07T07:28:28;20.57;;;12.77;;
15936;SDS011;9163;48.818;8.976;2023-12-07T07:30:55;19.20;;;11.83;;
15936;SDS011;9163;48.818;8.976;2023-12-07T07:33:23;18.83;;;11.40;;
15936;SDS011;9163;48.818;8.976;2023-12-07T07:35:50;18.00;;;11.20;;
15936;SDS011;9163;48.818;8.976;2023-12-07T07:38:18;15.27;;;9.53;;
15936;SDS011;9163;48.818;8.976;2023-12-07T07:40:46;14.90;;;9.10;;
15936;SDS011;9163;48.818;8.976;2023-12-07T07:43:14;13.93;;;8.83;;
15936;SDS011;9163;48.818;8.976;2023-12-07T07:45:41;12.90;;;8.77;;
15936;SDS011;9163;48.818;8.976;2023-12-07T07:48:09;11.00;;;7.87;;
15936;SDS011;9163;48.818;8.976;2023-12-07T07:50:36;11.13;;;8.33;;
15936;SDS011;9163;48.818;8.976;2023-12-07T07:53:03;17.07;;;8.37;;
15936;SDS011;9163;48.818;8.976;2023-12-07T07:55:32;13.00;;;8.77;;
15936;SDS011;9163;48.818;8.976;2023-12-07T07:57:59;11.10;;;7.83;;
15936;SDS011;9163;48.818;8.976;2023-12-07T08:00:26;11.50;;;7.30;;
15936;SDS011;9163;48.818;8.976;2023-12-07T08:02:53;13.07;;;8.27;;
15936;SDS011;9163;48.818;8.976;2023-12-07T08:05:20;10.60;;;7.07;;
15936;SDS011;9163;48.818;8.976;2023-12-07T08:07:48;9.40;;;7.50;;
15936;SDS011;9163;48.818;8.976;2023-12-07T08:10:15;10.77;;;7.63;;
15936;SDS011;9163;48.818;8.976;2023-12-07T08:12:44;12.80;;;8.33;;
15936;SDS011;9163;48.818;8.976;2023-12-07T08:15:11;10.37;;;7.30;;
15936;SDS011;9163;48.818;8.976;2023-12-07T08:17:39;10.33;;;7.30;;
15936;SDS011;9163;48.818;8.976;2023-12-07T08:20:07;11.13;;;7.00;;
15936;SDS011;9163;48.818;8.976;2023-12-07T08:22:36;10.70;;;7.63;;
15936;SDS011;9163;48.818;8.976;2023-12-07T08:25:04;9.93;;;6.93;;
15936;SDS011;9163;48.818;8.976;2023-12-07T08:27:33;8.23;;;6.50;;
15936;SDS011;9163;48.818;8.976;2023-12-07T08:30:02;9.87;;;7.90;;
15936;SDS011;9163;48.818;8.976;2023-12-07T08:32:30;11.57;;;8.63;;
15936;SDS011;9163;48.818;8.976;2023-12-07T08:34:57;13.63;;;10.20;;
15936;SDS011;9163;48.818;8.976;2023-12-07T08:37:24;12.50;;;8.00;;
15936;SDS011;9163;48.818;8.976;2023-12-07T08:39:51;10.13;;;7.23;;
15936;SDS011;9163;48.818;8.976;2023-12-07T08:42:18;11.90;;;7.40;;
15936;SDS011;9163;48.818;8.976;2023-12-07T08:44:46;9.63;;;7.00;;
15936;SDS011;9163;48.818;8.976;2023-12-07T08:47:14;8.93;;;6.63;;
15936;SDS011;9163;48.818;8.976;2023-12-07T08:49:41;8.27;;;6.30;;
15936;SDS011;9163;48.818;8.976;2023-12-07T08:52:08;10.00;;;6.13;;
15936;SDS011;9163;48.818;8.976;2023-12-07T08:54:36;7.83;;;6.23;;
15936;SDS011;9163;48.818;8.976;2023-12-07T08:57:03;7.50;;;5.93;;
15936;SDS011;9163;48.818;8.976;2023-12-07T08:59:29;7.80;;;6.00;;
15936;SDS011;9163;48.818;8.976;2023-12-07T09:01:57;7.87;;;6.53;;
15936;SDS011;9163;48.818;8.976;2023-12-07T09:04:26;8.90;;;6.23;;
15936;SDS011;9163;48.818;8.976;2023-12-07T09:06:53;7.17;;;5.90;;
15936;SDS011;9163;48.818;8.976;2023-12-07T09:09:21;8.20;;;6.13;;
15936;SDS011;9163;48.818;8.976;2023-12-07T09:11:49;8.77;;;6.47;;
15936;SDS011;9163;48.818;8.976;2023-12-07T09:14:16;10.10;;;7.20;;
15936;SDS011;9163;48.818;8.976;2023-12-07T09:16:43;9.37;;;7.30;;
15936;SDS011;9163;48.818;8.976;2023-12-07T09:19:11;7.63;;;6.33;;
15936;SDS011;9163;48.818;8.976;2023-12-07T09:21:40;7.93;;;6.80;;
15936;SDS011;9163;48.818;8.976;2023-12-07T09:24:08;7.83;;;6.70;;
15936;SDS011;9163;48.818;8.976;2023-12-07T09:26:35;9.33;;;6.60;;
15936;SDS011;9163;48.818;8.976;2023-12-07T09:29:02;7.97;;;6.50;;
15936;SDS011;9163;48.818;8.976;2023-12-07T09:31:29;9.17;;;6.60;;
15936;SDS011;9163;48.818;8.976;2023-12-07T09:33:57;8.13;;;6.20;;
15936;SDS011;9163;48.818;8.976;2023-12-07T09:36:24;7.87;;;6.50;;
15936;SDS011;9163;48.818;8.976;2023-12-07T09:38:54;10.27;;;6.40;;
15936;SDS011;9163;48.818;8.976;2023-12-07T09:41:22;9.00;;;6.70;;
15936;SDS011;9163;48.818;8.976;2023-12-07T09:43:50;7.80;;;6.70;;
15936;SDS011;9163;48.818;8.976;2023-12-07T09:46:17;9.43;;;6.73;;
15936;SDS011;9163;48.818;8.976;2023-12-07T09:48:45;9.07;;;6.33;;
15936;SDS011;9163;48.818;8.976;2023-12-07T09:51:15;7.17;;;6.47;;
15936;SDS011;9163;48.818;8.976;2023-12-07T09:53:42;8.10;;;6.37;;
15936;SDS011;9163;48.818;8.976;2023-12-07T09:56:15;7.90;;;6.63;;
15936;SDS011;9163;48.818;8.976;2023-12-07T09:58:42;6.63;;;6.00;;
15936;SDS011;9163;48.818;8.976;2023-12-07T10:01:09;8.40;;;5.87;;
15936;SDS011;9163;48.818;8.976;2023-12-07T10:03:39;7.53;;;5.87;;
15936;SDS011;9163;48.818;8.976;2023-12-07T10:06:07;7.40;;;5.97;;
15936;SDS011;9163;48.818;8.976;2023-12-07T10:08:34;8.53;;;6.60;;
15936;SDS011;9163;48.818;8.976;2023-12-07T10:11:03;6.93;;;6.23;;
15936;SDS011;9163;48.818;8.976;2023-12-07T10:13:33;7.87;;;6.03;;
15936;SDS011;9163;48.818;8.976;2023-12-07T10:16:05;8.10;;;6.00;;
15936;SDS011;9163;48.818;8.976;2023-12-07T10:18:34;7.57;;;6.00;;
15936;SDS011;9163;48.818;8.976;2023-12-07T10:21:01;7.47;;;6.30;;
15936;SDS011;9163;48.818;8.976;2023-12-07T10:23:29;7.63;;;6.10;;
15936;SDS011;9163;48.818;8.976;2023-12-07T10:25:59;8.13;;;6.90;;
15936;SDS011;9163;48.818;8.976;2023-12-07T10:28:26;7.03;;;6.30;;
15936;SDS011;9163;48.818;8.976;2023-12-07T10:30:54;7.25;;;6.05;;
15936;SDS011;9163;48.818;8.976;2023-12-07T10:33:25;6.72;;;5.70;;
15936;SDS011;9163;48.818;8.976;2023-12-07T10:35:53;6.63;;;5.93;;
15936;SDS011;9163;48.818;8.976;2023-12-07T10:38:20;7.88;;;6.00;;
15936;SDS011;9163;48.818;8.976;2023-12-07T10:40:47;7.97;;;6.05;;
15936;SDS011;9163;48.818;8.976;2023-12-07T10:43:22;6.93;;;5.40;;
15936;SDS011;9163;48.818;8.976;2023-12-07T10:45:49;6.53;;;5.53;;
15936;SDS011;9163;48.818;8.976;2023-12-07T10:48:18;5.57;;;5.07;;
15936;SDS011;9163;48.818;8.976;2023-12-07T10:50:46;6.38;;;5.53;;
15936;SDS011;9163;48.818;8.976;2023-12-07T10:53:18;5.68;;;5.15;;
15936;SDS011;9163;48.818;8.976;2023-12-07T10:55:52;6.13;;;5.32;;
15936;SDS011;9163;48.818;8.976;2023-12-07T10:58:23;5.97;;;4.60;;
15936;SDS011;9163;48.818;8.976;2023-12-07T11:00:52;5.10;;;4.57;;
15936;SDS011;9163;48.818;8.976;2023-12-07T11:03:21;4.72;;;4.22;;
15936;SDS011;9163;48.818;8.976;2023-12-07T11:05:49;6.43;;;4.70;;
15936;SDS011;9163;48.818;8.976;2023-12-07T11:08:19;3.75;;;3.42;;
15936;SDS011;9163;48.818;8.976;2023-12-07T11:10:54;4.18;;;3.78;;
15936;SDS011;9163;48.818;8.976;2023-12-07T11:13:29;4.90;;;3.83;;
15936;SDS011;9163;48.818;8.976;2023-12-07T11:15:58;4.30;;;3.90;;
15936;SDS011;9163;48.818;8.976;2023-12-07T11:18:28;3.45;;;3.13;;
15936;SDS011;9163;48.818;8.976;2023-12-07T11:20:55;4.47;;;3.50;;
15936;SDS011;9163;48.818;8.976;2023-12-07T11:23:23;4.70;;;3.20;;
15936;SDS011;9163;48.818;8.976;2023-12-07T11:25:52;3.22;;;2.60;;
15936;SDS011;9163;48.818;8.976;2023-12-07T11:28:33;5.40;;;3.70;;
15936;SDS011;9163;48.818;8.976;2023-12-07T11:31:02;3.37;;;2.70;;
15936;SDS011;9163;48.818;8.976;2023-12-07T11:33:30;4.65;;;3.53;;
15936;SDS011;9163;48.818;8.976;2023-12-07T11:36:04;5.30;;;3.20;;
15936;SDS011;9163;48.818;8.976;2023-12-07T11:38:33;4.68;;;2.47;;
15936;SDS011;9163;48.818;8.976;2023-12-07T11:41:02;3.63;;;1.70;;
15936;SDS011;9163;48.818;8.976;2023-12-07T11:43:42;3.23;;;2.00;;
15936;SDS011;9163;48.818;8.976;2023-12-07T11:46:11;2.33;;;1.70;;
15936;SDS011;9163;48.818;8.976;2023-12-07T11:48:41;2.63;;;2.13;;
15936;SDS011;9163;48.818;8.976;2023-12-07T11:51:14;2.93;;;2.03;;
15936;SDS011;9163;48.818;8.976;2023-12-07T11:53:42;2.00;;;1.70;;
15936;SDS011;9163;48.818;8.976;2023-12-07T11:56:10;3.73;;;1.90;;
15936;SDS011;9163;48.818;8.976;2023-12-07T11:58:38;2.63;;;1.90;;
15936;SDS011;9163;48.818;8.976;2023-12-07T12:01:06;2.83;;;1.70;;
15936;SDS011;9163;48.818;8.976;2023-12-07T12:03:33;3.60;;;1.70;;
15936;SDS011;9163;48.818;8.976;2023-12-07T12:06:03;4.77;;;2.00;;
15936;SDS011;9163;48.818;8.976;2023-12-07T12:08:33;2.67;;;1.80;;
15936;SDS011;9163;48.818;8.976;2023-12-07T12:11:00;2.50;;;2.00;;
15936;SDS011;9163;48.818;8.976;2023-12-07T12:13:28;4.97;;;3.00;;
15936;SDS011;9163;48.818;8.976;2023-12-07T12:15:56;4.03;;;2.70;;
15936;SDS011;9163;48.818;8.976;2023-12-07T12:18:24;3.10;;;2.30;;
15936;SDS011;9163;48.818;8.976;2023-12-07T12:20:51;2.53;;;1.93;;
15936;SDS011;9163;48.818;8.976;2023-12-07T12:23:20;2.70;;;1.80;;
15936;SDS011;9163;48.818;8.976;2023-12-07T12:25:47;3.33;;;1.90;;
15936;SDS011;9163;48.818;8.976;2023-12-07T12:28:16;2.63;;;1.83;;
15936;SDS011;9163;48.818;8.976;2023-12-07T12:30:44;2.90;;;1.83;;
15936;SDS011;9163;48.818;8.976;2023-12-07T12:33:12;2.20;;;1.90;;
15936;SDS011;9163;48.818;8.976;2023-12-07T12:35:40;3.93;;;1.97;;
15936;SDS011;9163;48.818;8.976;2023-12-07T12:38:10;2.20;;;1.90;;
15936;SDS011;9163;48.818;8.976;2023-12-07T12:40:39;3.47;;;2.00;;
15936;SDS011;9163;48.818;8.976;2023-12-07T12:43:07;4.23;;;2.03;;
15936;SDS011;9163;48.818;8.976;2023-12-07T12:45:36;10.07;;;5.17;;
15936;SDS011;9163;48.818;8.976;2023-12-07T12:48:04;4.10;;;3.10;;
15936;SDS011;9163;48.818;8.976;2023-12-07T12:50:32;6.90;;;4.80;;
15936;SDS011;9163;48.818;8.976;2023-12-07T12:53:02;2.77;;;1.90;;
15936;SDS011;9163;48.818;8.976;2023-12-07T12:55:32;2.10;;;1.73;;
15936;SDS011;9163;48.818;8.976;2023-12-07T12:58:03;3.10;;;2.60;;
15936;SDS011;9163;48.818;8.976;2023-12-07T13:00:32;3.90;;;2.30;;
15936;SDS011;9163;48.818;8.976;2023-12-07T13:03:00;3.97;;;2.27;;
15936;SDS011;9163;48.818;8.976;2023-12-07T13:05:27;2.97;;;1.90;;
15936;SDS011;9163;48.818;8.976;2023-12-07T13:07:54;3.80;;;2.20;;
15936;SDS011;9163;48.818;8.976;2023-12-07T13:10:22;3.80;;;2.00;;
15936;SDS011;9163;48.818;8.976;2023-12-07T13:12:49;2.60;;;2.37;;
15936;SDS011;9163;48.818;8.976;2023-12-07T13:15:18;2.10;;;1.70;;
15936;SDS011;9163;48.818;8.976;2023-12-07T13:17:45;6.63;;;4.10;;
15936;SDS011;9163;48.818;8.976;2023-12-07T13:20:13;2.97;;;2.33;;
15936;SDS011;9163;48.818;8.976;2023-12-07T13:22:40;3.57;;;2.33;;
15936;SDS011;9163;48.818;8.976;2023-12-07T13:25:09;2.57;;;2.23;;
15936;SDS011;9163;48.818;8.976;2023-12-07T13:27:37;3.57;;;2.50;;
15936;SDS011;9163;48.818;8.976;2023-12-07T13:30:05;3.97;;;2.77;;
15936;SDS011;9163;48.818;8.976;2023-12-07T13:32:36;4.63;;;2.47;;
15936;SDS011;9163;48.818;8.976;2023-12-07T13:35:03;5.17;;;2.93;;
15936;SDS011;9163;48.818;8.976;2023-12-07T13:37:31;4.33;;;3.03;;
15936;SDS011;9163;48.818;8.976;2023-12-07T13:39:58;4.53;;;3.00;;
15936;SDS011;9163;48.818;8.976;2023-12-07T13:42:29;6.03;;;3.00;;
15936;SDS011;9163;48.818;8.976;2023-12-07T13:44:58;11.90;;;6.23;;
15936;SDS011;9163;48.818;8.976;2023-12-07T13:47:26;8.90;;;4.50;;
15936;SDS011;9163;48.818;8.976;2023-12-07T13:49:58;4.70;;;2.87;;
15936;SDS011;9163;48.818;8.976;2023-12-07T13:52:26;3.80;;;2.87;;
15936;SDS011;9163;48.818;8.976;2023-12-07T13:54:54;4.90;;;2.83;;
15936;SDS011;9163;48.818;8.976;2023-12-07T13:57:21;4.00;;;2.80;;
15936;SDS011;9163;48.818;8.976;2023-12-07T13:59:50;4.10;;;2.93;;
15936;SDS011;9163;48.818;8.976;2023-12-07T14:02:18;3.40;;;2.27;;
15936;SDS011;9163;48.818;8.976;2023-12-07T14:04:46;4.17;;;2.87;;
15936;SDS011;9163;48.818;8.976;2023-12-07T14:07:17;3.13;;;2.63;;
15936;SDS011;9163;48.818;8.976;2023-12-07T14:09:46;3.73;;;2.63;;
15936;SDS011;9163;48.818;8.976;2023-12-07T14:12:15;4.47;;;2.97;;
15936;SDS011;9163;48.818;8.976;2023-12-07T14:14:43;3.83;;;3.00;;
15936;SDS011;9163;48.818;8.976;2023-12-07T14:17:12;7.30;;;3.57;;
15936;SDS011;9163;48.818;8.976;2023-12-07T14:19:39;4.53;;;3.77;;
15936;SDS011;9163;48.818;8.976;2023-12-07T14:22:07;6.37;;;3.50;;
15936;SDS011;9163;48.818;8.976;2023-12-07T14:24:36;5.47;;;3.70;;
15936;SDS011;9163;48.818;8.976;2023-12-07T14:27:04;6.80;;;3.40;;
15936;SDS011;9163;48.818;8.976;2023-12-07T14:29:33;6.30;;;3.60;;
15936;SDS011;9163;48.818;8.976;2023-12-07T14:32:01;5.10;;;3.37;;
15936;SDS011;9163;48.818;8.976;2023-12-07T14:34:28;6.03;;;3.60;;
15936;SDS011;9163;48.818;8.976;2023-12-07T14:36:55;7.00;;;3.80;;
15936;SDS011;9163;48.818;8.976;2023-12-07T14:39:22;4.70;;;3.47;;
15936;SDS011;9163;48.818;8.976;2023-12-07T14:41:51;6.83;;;3.80;;
15936;SDS011;9163;48.818;8.976;2023-12-07T14:44:18;10.23;;;4.23;;
15936;SDS011;9163;48.818;8.976;2023-12-07T14:46:46;4.83;;;3.80;;
15936;SDS011;9163;48.818;8.976;2023-12-07T14:49:14;4.97;;;3.53;;
15936;SDS011;9163;48.818;8.976;2023-12-07T14:51:43;5.30;;;3.63;;
15936;SDS011;9163;48.818;8.976;2023-12-07T14:54:10;8.23;;;3.80;;